Time;durP1;ratioP1;P1;durP2;ratioP2;P2;SDS_P1;SDS_P2;PMS_P1;PMS_P2;Temp;Humidity;BMP_temperature;BMP_pressure;BME280_temperature;BME280_humidity;BME280_pressure;Samples;Min_cycle;Max_cycle;Signal;HPM_P1;HPM_P2
2022/09/05 00:02:02;;;;;;;3.38;1.70;;;;;;;24.47;49.50;101038.63;5014024;28;20057;-68
2022/09/05 00:04:41;;;;;;;3.00;1.48;;;;;;;24.69;48.99;101034.66;4979400;28;20616;-67
2022/09/05 00:07:14;;;;;;;2.05;1.13;;;;;;;24.49;49.57;101037.03;5015082;28;20532;-67
2022/09/05 00:10:17;;;;;;;4.30;1.38;;;;;;;24.48;49.58;101034.59;5013493;28;20049;-67
2022/09/05 00:12:47;;;;;;;3.70;1.58;;;;;;;24.43;49.92;101043.44;5015372;28;20058;-67
2022/09/05 00:15:27;;;;;;;5.72;1.55;;;;;;;24.35;50.37;101051.09;5013875;28;20497;-67
2022/09/05 00:18:19;;;;;;;2.92;1.73;;;;;;;24.34;50.41;101068.34;5014093;28;20049;-68
2022/09/05 00:21:31;;;;;;;3.45;1.20;;;;;;;23.98;51.62;101060.97;5014840;28;20046;-67
2022/09/05 00:24:18;;;;;;;3.17;1.33;;;;;;;23.91;52.22;101049.69;5014995;28;20053;-68
2022/09/05 00:27:12;;;;;;;3.20;1.20;;;;;;;23.80;52.65;101055.25;5013416;28;20057;-67
2022/09/05 00:29:39;;;;;;;3.03;1.25;;;;;;;23.66;53.01;101052.38;5015160;28;20065;-68
2022/09/05 00:32:38;;;;;;;2.40;1.10;;;;;;;23.44;53.48;101045.03;5014692;28;20134;-67
2022/09/05 00:35:13;;;;;;;2.45;1.30;;;;;;;23.53;53.13;101039.84;5013951;28;20061;-67
2022/09/05 00:37:44;;;;;;;1.90;1.10;;;;;;;23.58;52.55;101033.03;5014881;28;20057;-67
2022/09/05 00:40:38;;;;;;;2.65;1.23;;;;;;;23.62;52.74;101031.06;5014962;28;20057;-67
2022/09/05 00:43:21;;;;;;;5.78;1.52;;;;;;;23.75;52.04;101032.31;5013405;28;20060;-67
2022/09/05 00:45:59;;;;;;;4.03;1.50;;;;;;;23.23;53.45;101050.47;5014466;28;20579;-67
2022/09/05 00:48:48;;;;;;;3.63;1.17;;;;;;;23.52;52.63;101057.13;5013691;28;20164;-66
2022/09/05 00:51:22;;;;;;;3.67;1.25;;;;;;;23.64;52.48;101070.84;4996795;28;20042;-68
2022/09/05 00:54:22;;;;;;;2.15;1.20;;;;;;;23.74;51.97;101064.47;5014832;28;20502;-68
2022/09/05 00:57:35;;;;;;;3.78;1.30;;;;;;;23.59;52.41;101069.22;5014618;28;20046;-67
2022/09/05 01:00:15;;;;;;;3.22;1.50;;;;;;;23.67;52.28;101047.56;5014893;28;20041;-67
2022/09/05 01:02:44;;;;;;;4.47;1.40;;;;;;;23.70;52.31;101036.34;5012846;28;20581;-67
2022/09/05 01:05:30;;;;;;;2.92;1.30;;;;;;;23.68;52.39;101030.28;5014199;28;20054;-67
2022/09/05 01:08:19;;;;;;;3.33;1.30;;;;;;;23.58;52.68;101024.59;5014715;28;20062;-68
2022/09/05 01:10:53;;;;;;;4.03;1.35;;;;;;;23.52;52.91;101017.75;5014220;28;20038;-68
2022/09/05 01:13:45;;;;;;;1.92;1.08;;;;;;;23.66;52.67;101024.25;5014866;28;20401;-67
2022/09/05 01:17:06;;;;;;;3.47;1.20;;;;;;;23.78;52.11;101025.94;5012966;28;20042;-68
2022/09/05 01:20:07;;;;;;;3.03;1.50;;;;;;;23.80;51.98;101046.81;4973602;28;20478;-68
2022/09/05 01:23:21;;;;;;;5.97;1.60;;;;;;;23.67;53.67;101095.38;4982858;28;20050;-68
2022/09/05 01:26:09;;;;;;;4.45;1.60;;;;;;;23.90;53.08;101110.00;5006511;28;20062;-67
2022/09/05 01:29:03;;;;;;;15.15;3.10;;;;;;;23.43;59.27;101077.94;5013312;28;20064;-67
2022/09/05 01:32:04;;;;;;;14.07;2.97;;;;;;;23.18;61.10;101040.41;4986759;28;20322;-68
2022/09/05 01:34:53;;;;;;;10.10;2.90;;;;;;;23.08;62.80;101012.22;4983788;28;20418;-67
2022/09/05 01:37:31;;;;;;;11.35;3.38;;;;;;;22.89;63.78;101006.88;4999763;28;20213;-67
2022/09/05 01:40:16;;;;;;;15.48;3.40;;;;;;;22.75;64.03;101012.38;4962499;28;20061;-66
2022/09/05 01:43:26;;;;;;;12.70;2.90;;;;;;;22.45;65.09;101001.25;5013187;28;20045;-67
2022/09/05 01:46:25;;;;;;;6.90;2.30;;;;;;;22.57;63.67;101002.97;4996732;28;20065;-67
2022/09/05 01:48:53;;;;;;;8.05;2.40;;;;;;;22.62;63.46;100994.19;5009745;28;20050;-69
2022/09/05 01:51:33;;;;;;;5.47;2.10;;;;;;;22.60;62.18;100996.56;5003711;28;20046;-68
2022/09/05 01:54:19;;;;;;;6.03;1.90;;;;;;;22.89;59.73;100993.59;5014678;28;20493;-69
2022/09/05 01:57:15;;;;;;;5.57;2.00;;;;;;;23.03;58.62;100992.94;5000216;28;20045;-70
2022/09/05 02:00:22;;;;;;;7.78;2.00;;;;;;;23.14;59.38;101016.28;5000038;28;20081;-68
2022/09/05 02:02:50;;;;;;;4.80;1.88;;;;;;;22.83;63.08;101017.66;5016265;28;20053;-68
2022/09/05 02:05:44;;;;;;;9.93;2.50;;;;;;;22.46;65.20;101027.28;5017595;28;20544;-68
2022/09/05 02:08:38;;;;;;;7.70;2.10;;;;;;;22.63;62.06;101021.88;5017783;28;20041;-68
2022/09/05 02:11:10;;;;;;;4.68;1.98;;;;;;;22.74;62.81;101024.78;5017120;28;20065;-68
2022/09/05 02:13:52;;;;;;;10.60;2.20;;;;;;;22.41;64.80;101024.84;4999790;28;20062;-67
2022/09/05 02:16:43;;;;;;;5.35;2.33;;;;;;;22.27;63.88;101029.13;5017271;28;20046;-68
2022/09/05 02:19:13;;;;;;;;;;;;;;;22.42;63.99;101027.25;5018321;28;20054;-68
2022/09/05 02:22:01;;;;;;;5.93;2.03;;;;;;;22.45;64.28;101020.06;5000008;28;20017;-68
2022/09/05 02:24:31;;;;;;;4.43;2.20;;;;;;;22.49;63.82;101015.31;5017386;28;20062;-67
2022/09/05 02:27:02;;;;;;;;;;;;;;;22.59;63.34;101021.06;5016253;28;20413;-67
2022/09/05 02:29:35;;;;;;;7.57;2.03;;;;;;;22.58;63.51;101021.44;5017314;28;19921;-68
2022/09/05 02:32:12;;;;;;;5.28;2.00;;;;;;;22.62;63.05;101025.88;5015589;28;20056;-67
2022/09/05 02:34:53;;;;;;;7.70;2.05;;;;;;;22.37;63.94;101021.22;5016300;28;20050;-67
2022/09/05 02:37:35;;;;;;;7.30;2.17;;;;;;;22.47;63.60;101024.13;5015648;28;20050;-68
2022/09/05 02:40:35;;;;;;;5.25;1.88;;;;;;;22.37;63.60;101022.00;5016579;28;20061;-68
2022/09/05 02:43:31;;;;;;;4.00;1.90;;;;;;;22.50;63.15;101025.34;5017396;28;20053;-67
2022/09/05 02:46:27;;;;;;;5.95;1.90;;;;;;;22.50;62.80;101023.34;5016690;28;20056;-68
2022/09/05 02:49:20;;;;;;;4.50;2.15;;;;;;;22.53;62.92;101035.78;5016970;28;20050;-67
2022/09/05 02:52:10;;;;;;;5.75;2.13;;;;;;;22.59;61.89;101053.94;5016071;28;20076;-67
2022/09/05 02:54:58;;;;;;;7.05;2.25;;;;;;;22.59;63.36;101059.56;5017149;28;20050;-67
2022/09/05 02:57:52;;;;;;;6.68;2.45;;;;;;;22.35;64.08;101053.25;5015891;28;20057;-67
2022/09/05 03:00:43;;;;;;;4.45;2.20;;;;;;;22.23;64.00;101052.72;5001104;28;20064;-67
2022/09/05 03:03:36;;;;;;;4.90;2.20;;;;;;;22.11;64.69;101055.78;5015673;28;20058;-67
2022/09/05 03:06:17;;;;;;;5.10;1.67;;;;;;;22.38;63.65;101054.50;5015913;28;20075;-68
2022/09/05 03:09:28;;;;;;;5.65;2.13;;;;;;;22.27;64.11;101070.41;5016574;28;20414;-67
2022/09/05 03:12:07;;;;;;;8.18;2.47;;;;;;;22.64;61.92;101073.25;5016215;28;20046;-67
2022/09/05 03:15:13;;;;;;;7.05;2.28;;;;;;;22.63;62.25;101075.22;5016524;28;20054;-68
2022/09/05 03:18:18;;;;;;;5.07;2.00;;;;;;;22.60;62.85;101080.81;5016491;28;20069;-67
2022/09/05 03:21:46;;;;;;;8.50;2.20;;;;;;;22.60;63.20;101086.44;4999028;28;20054;-69
2022/09/05 03:24:25;;;;;;;5.72;1.98;;;;;;;22.71;62.31;101096.59;4955204;29;20059;-67
2022/09/05 03:27:11;;;;;;;5.53;2.00;;;;;;;22.68;62.22;101093.75;4938702;29;20059;-67
2022/09/05 03:29:48;;;;;;;5.13;2.10;;;;;;;22.55;62.72;101089.59;4997840;28;20804;-67
2022/09/05 03:33:02;;;;;;;4.97;2.20;;;;;;;22.33;64.46;101094.94;5014373;28;20086;-67
2022/09/05 03:35:32;;;;;;;5.05;2.17;;;;;;;22.46;63.30;101089.06;5015640;28;20065;-67
2022/09/05 03:38:27;;;;;;;5.00;2.35;;;;;;;22.62;63.75;101096.09;5016143;28;20060;-67
2022/09/05 03:41:04;;;;;;;5.90;2.28;;;;;;;22.47;63.61;101101.91;5015876;28;20454;-68
2022/09/05 03:43:49;;;;;;;6.20;2.10;;;;;;;22.50;63.91;101095.53;5016265;28;20070;-68
2022/09/05 03:46:52;;;;;;;7.03;2.25;;;;;;;22.25;65.01;101086.81;5015458;28;20049;-68
2022/09/05 03:49:28;;;;;;;6.45;2.20;;;;;;;22.15;64.82;101085.53;4954942;29;20051;-67
2022/09/05 03:52:35;;;;;;;3.95;1.83;;;;;;;22.27;64.38;101085.25;5015383;28;20062;-67
2022/09/05 03:55:35;;;;;;;5.50;2.25;;;;;;;22.33;64.82;101072.47;5014055;28;20050;-67
2022/09/05 03:58:33;;;;;;;3.87;2.40;;;;;;;22.28;64.92;101084.06;5015961;28;20038;-68
2022/09/05 04:01:34;;;;;;;5.40;2.35;;;;;;;22.05;66.10;101091.81;5014213;28;20045;-66
2022/09/05 04:04:29;;;;;;;5.40;2.35;;;;;;;22.14;66.45;101092.31;5013614;28;20061;-67
2022/09/05 04:07:28;;;;;;;5.05;2.25;;;;;;;22.30;65.68;101080.84;5014008;28;20417;-68
2022/09/05 04:10:41;;;;;;;4.47;2.00;;;;;;;22.13;66.55;101095.50;5015251;28;20082;-67
2022/09/05 04:13:23;;;;;;;4.63;2.38;;;;;;;22.05;66.75;101093.81;5012301;28;20061;-68
2022/09/05 04:16:02;;;;;;;5.03;2.50;;;;;;;21.73;68.41;101092.53;5013422;28;20413;-67
2022/09/05 04:18:37;;;;;;;7.57;2.72;;;;;;;21.94;67.16;101096.47;5013924;28;20087;-69
2022/09/05 04:21:19;;;;;;;5.05;2.60;;;;;;;22.13;66.81;101092.69;4996827;28;20061;-67
2022/09/05 04:24:04;;;;;;;10.00;2.70;;;;;;;22.18;66.85;101083.94;5014373;28;20072;-67
2022/09/05 04:27:05;;;;;;;4.65;2.38;;;;;;;21.98;66.97;101077.69;5014602;28;20056;-68
2022/09/05 04:29:38;;;;;;;6.03;2.55;;;;;;;22.20;66.54;101081.56;5010507;28;20053;-67
2022/09/05 04:32:12;;;;;;;4.88;2.40;;;;;;;22.17;66.64;101085.94;5015220;28;20057;-69
2022/09/05 04:35:08;;;;;;;;;;;;;;;22.18;66.68;101081.13;5015527;28;20046;-67
2022/09/05 04:37:45;;;;;;;5.25;2.83;;;;;;;22.06;67.33;101082.19;5009362;28;19926;-68
2022/09/05 04:40:45;;;;;;;5.45;2.70;;;;;;;21.81;68.67;101092.28;5015177;28;20045;-67
2022/09/05 04:43:31;;;;;;;8.02;2.78;;;;;;;21.78;68.74;101103.44;5013011;28;20065;-68
2022/09/05 04:46:16;;;;;;;8.02;2.80;;;;;;;21.92;67.93;101112.06;5012950;28;20413;-68
2022/09/05 04:48:50;;;;;;;5.50;2.90;;;;;;;21.94;67.90;101116.09;5014977;28;20073;-67
2022/09/05 04:52:11;;;;;;;5.32;3.05;;;;;;;21.74;68.35;101128.59;5013140;28;20057;-67
2022/09/05 04:55:00;;;;;;;6.45;2.80;;;;;;;21.61;70.09;101130.03;4954996;28;20094;-68
2022/09/05 04:57:46;;;;;;;10.15;3.00;;;;;;;21.82;69.20;101118.34;4997065;28;20679;-67
2022/09/05 05:00:14;;;;;;;8.27;3.08;;;;;;;21.88;69.06;101120.41;5014677;28;20058;-67
2022/09/05 05:03:03;;;;;;;4.35;2.60;;;;;;;21.95;68.61;101114.13;5014786;28;20382;-67
2022/09/05 05:05:57;;;;;;;6.22;2.92;;;;;;;21.77;70.51;101115.81;4998879;28;20045;-67
2022/09/05 05:08:44;;;;;;;6.05;2.72;;;;;;;21.55;71.11;101113.91;5014832;28;20061;-68
2022/09/05 05:11:57;;;;;;;8.27;3.20;;;;;;;21.62;70.39;101114.81;5012991;28;20548;-68
2022/09/05 05:14:45;;;;;;;5.35;2.75;;;;;;;21.45;71.59;101117.34;4982485;28;20053;-68
2022/09/05 05:17:44;;;;;;;5.13;2.60;;;;;;;21.59;70.44;101109.97;5012981;28;20421;-68
2022/09/05 05:20:55;;;;;;;7.80;3.28;;;;;;;21.73;69.81;101109.34;5014373;28;20049;-67
2022/09/05 05:23:31;;;;;;;5.65;2.55;;;;;;;21.63;70.09;101108.03;5013492;28;20050;-67
2022/09/05 05:26:01;;;;;;;6.05;2.60;;;;;;;21.76;69.20;101115.00;5014072;28;20046;-68
2022/09/05 05:28:56;;;;;;;5.28;2.72;;;;;;;21.77;68.93;101111.03;5013489;28;20524;-68
2022/09/05 05:31:28;;;;;;;8.00;3.22;;;;;;;21.49;70.78;101115.41;5015765;28;20054;-67
2022/09/05 05:33:59;;;;;;;9.90;3.40;;;;;;;21.69;69.67;101114.13;5017180;28;20049;-68
2022/09/05 05:36:33;;;;;;;8.35;3.40;;;;;;;21.51;71.17;101122.25;5016579;28;20049;-68
2022/09/05 05:39:26;;;;;;;8.23;5.00;;;;;;;21.71;70.48;101117.31;5017280;28;20058;-67
2022/09/05 05:41:55;;;;;;;14.15;9.60;;;;;;;21.87;69.65;101116.00;5016778;28;20057;-68
2022/09/05 05:44:26;;;;;;;12.18;5.90;;;;;;;21.96;69.04;101127.75;5018446;28;20046;-68
2022/09/05 05:47:19;;;;;;;19.92;12.88;;;;;;;21.94;69.46;101130.13;5018268;28;20061;-69
2022/09/05 05:50:01;;;;;;;12.13;6.97;;;;;;;22.00;69.63;101130.63;5017148;28;20053;-68
2022/09/05 05:52:56;;;;;;;11.50;5.50;;;;;;;22.03;69.45;101138.25;5017774;28;20046;-67
2022/09/05 05:55:36;;;;;;;8.88;4.78;;;;;;;21.95;69.78;101139.38;5017421;28;20080;-67
2022/09/05 05:58:51;;;;;;;8.15;4.65;;;;;;;21.95;70.16;101140.16;5018043;28;20490;-68
2022/09/05 06:01:40;;;;;;;8.13;4.68;;;;;;;21.98;69.97;101147.00;5016243;28;20081;-68
2022/09/05 06:04:26;;;;;;;8.77;3.77;;;;;;;22.31;67.83;101139.44;5018118;28;20527;-67
2022/09/05 06:07:06;;;;;;;8.13;4.10;;;;;;;22.30;68.19;101143.44;5015873;28;20497;-68
2022/09/05 06:10:28;;;;;;;6.63;3.67;;;;;;;22.48;67.94;101157.69;5000726;28;20394;-68
2022/09/05 06:13:52;;;;;;;10.63;4.07;;;;;;;22.53;67.02;101162.13;4960090;28;20390;-67
2022/09/05 06:17:02;;;;;;;11.45;4.18;;;;;;;22.14;69.33;101175.69;5016011;28;20049;-68
2022/09/05 06:19:44;;;;;;;9.07;4.13;;;;;;;22.28;67.53;101189.91;5016051;28;20057;-67
2022/09/05 06:22:51;;;;;;;9.35;3.83;;;;;;;22.35;66.06;101193.59;5017291;28;20061;-68
2022/09/05 06:25:43;;;;;;;17.63;4.25;;;;;;;22.49;66.00;101183.75;5017312;28;20054;-68
2022/09/05 06:28:15;;;;;;;8.27;3.72;;;;;;;22.52;64.89;101191.41;5017773;28;20049;-68
2022/09/05 06:31:34;;;;;;;18.92;6.25;;;;;;;22.61;64.62;101192.78;4999186;28;20046;-68
2022/09/05 06:34:24;;;;;;;13.80;5.88;;;;;;;22.72;63.70;101202.13;5012303;28;20053;-68
2022/09/05 06:37:15;;;;;;;11.00;5.80;;;;;;;22.80;63.78;101200.22;5016800;28;20592;-68
2022/09/05 06:39:58;;;;;;;11.98;5.00;;;;;;;22.86;63.25;101215.50;5000070;28;20425;-67
2022/09/05 06:42:41;;;;;;;11.00;4.35;;;;;;;23.05;62.56;101215.31;5014291;28;20081;-68
2022/09/05 06:45:34;;;;;;;9.93;3.97;;;;;;;22.91;64.12;101223.63;5000036;28;20057;-67
2022/09/05 06:48:09;;;;;;;8.70;3.78;;;;;;;23.00;63.55;101229.72;5017390;28;20057;-67
2022/09/05 06:51:05;;;;;;;7.93;3.70;;;;;;;22.86;63.17;101241.59;5015466;28;20498;-68
2022/09/05 06:54:02;;;;;;;11.27;3.58;;;;;;;22.82;62.95;101248.38;5017083;28;20441;-67
2022/09/05 06:56:38;;;;;;;11.13;4.38;;;;;;;23.03;62.74;101259.88;5015181;28;20057;-67
2022/09/05 06:59:47;;;;;;;9.43;3.80;;;;;;;23.19;62.54;101261.25;5016965;28;20058;-67
2022/09/05 07:02:18;;;;;;;12.70;3.40;;;;;;;23.08;62.91;101249.06;5016295;28;20057;-69
2022/09/05 07:05:17;;;;;;;;;;;;;;;23.24;61.63;101249.66;5017338;28;20764;-68
2022/09/05 07:08:22;;;;;;;7.13;3.58;;;;;;;23.33;61.73;101257.81;5015906;28;19921;-67
2022/09/05 07:11:08;;;;;;;10.57;3.17;;;;;;;23.46;60.90;101255.53;5016152;28;20056;-69
2022/09/05 07:13:56;;;;;;;;;;;;;;;23.52;60.85;101243.53;5017152;28;20046;-68
2022/09/05 07:16:50;;;;;;;10.50;5.40;;;;;;;23.66;60.42;101260.53;5015909;28;20439;-67
2022/09/05 07:19:27;;;;;;;10.40;4.30;;;;;;;23.61;60.18;101266.50;4999331;28;20671;-69
2022/09/05 07:22:50;;;;;;;10.70;4.63;;;;;;;23.71;59.55;101251.72;4998363;28;20052;-68
2022/09/05 07:25:21;;;;;;;9.27;5.88;;;;;;;23.77;59.71;101246.56;4978343;28;20091;-68
2022/09/05 07:28:12;;;;;;;12.38;5.60;;;;;;;23.76;60.18;101244.94;5017152;28;20057;-68
2022/09/05 07:31:17;;;;;;;9.15;4.50;;;;;;;23.80;59.43;101254.22;5014525;28;20046;-68
2022/09/05 07:34:11;;;;;;;8.20;3.03;;;;;;;23.89;59.20;101251.88;5015260;28;20054;-68
2022/09/05 07:37:00;;;;;;;9.05;3.80;;;;;;;23.98;58.61;101252.34;5015840;28;20046;-67
2022/09/05 07:39:48;;;;;;;9.50;3.53;;;;;;;24.04;58.99;101248.78;5016092;28;20053;-68
2022/09/05 07:42:21;;;;;;;9.45;3.97;;;;;;;24.04;57.95;101257.22;5014177;28;20069;-67
2022/09/05 07:44:55;;;;;;;7.97;3.20;;;;;;;23.94;58.49;101249.50;5016196;28;20682;-68
2022/09/05 07:47:32;;;;;;;6.97;2.88;;;;;;;24.03;57.88;101235.13;5015478;28;20076;-67
2022/09/05 07:50:05;;;;;;;14.40;3.35;;;;;;;24.04;58.25;101229.09;5016148;28;20053;-67
2022/09/05 07:52:54;;;;;;;5.65;2.40;;;;;;;24.09;57.22;101233.56;5014157;28;20050;-69
2022/09/05 07:55:42;;;;;;;7.67;2.80;;;;;;;23.97;57.44;101226.19;5000017;28;20087;-69
2022/09/05 07:58:40;;;;;;;5.10;2.30;;;;;;;24.15;56.79;101217.91;5015900;28;20054;-67
2022/09/05 08:01:11;;;;;;;10.65;4.93;;;;;;;24.00;57.13;101214.22;5014949;28;20050;-68
2022/09/05 08:03:41;;;;;;;9.60;4.68;;;;;;;24.08;57.36;101215.84;4997864;28;20088;-67
2022/09/05 08:06:17;;;;;;;10.23;5.25;;;;;;;24.14;56.85;101211.47;5015215;28;20049;-68
2022/09/05 08:09:14;;;;;;;13.45;4.18;;;;;;;24.21;56.99;101210.72;5000914;28;20054;-68
2022/09/05 08:12:10;;;;;;;12.65;3.83;;;;;;;24.35;56.56;101202.34;5013069;28;20061;-68
2022/09/05 08:14:44;;;;;;;38.55;6.32;;;;;;;24.62;55.19;101197.22;4998845;28;20061;-68
2022/09/05 08:17:17;;;;;;;17.20;5.20;;;;;;;24.65;54.79;101202.88;5013019;28;20073;-69
2022/09/05 08:20:22;;;;;;;5.68;2.60;;;;;;;24.83;54.11;101203.75;5016162;28;20057;-70
2022/09/05 08:23:03;;;;;;;8.50;2.25;;;;;;;24.60;53.50;101203.22;5015014;28;20046;-68
2022/09/05 08:25:33;;;;;;;7.30;2.22;;;;;;;24.65;53.63;101208.50;5013901;28;20792;-68
2022/09/05 08:28:26;;;;;;;5.82;2.33;;;;;;;24.60;53.90;101208.09;5014690;28;20057;-69
2022/09/05 08:31:13;;;;;;;5.25;2.28;;;;;;;24.82;53.30;101207.78;4999001;28;20069;-69
2022/09/05 08:33:42;;;;;;;3.88;2.13;;;;;;;24.86;52.57;101207.81;5013721;28;20045;-68
2022/09/05 08:36:12;;;;;;;4.82;2.10;;;;;;;25.18;51.67;101208.66;5013512;28;20061;-68
2022/09/05 08:38:42;;;;;;;8.38;2.45;;;;;;;25.41;51.66;101203.47;5015386;28;20425;-68
2022/09/05 08:41:24;;;;;;;6.90;2.42;;;;;;;25.43;51.55;101204.72;5013462;28;20050;-68
2022/09/05 08:44:11;;;;;;;14.85;3.13;;;;;;;25.67;51.67;101205.09;5014178;28;20049;-68
2022/09/05 08:47:24;;;;;;;9.80;3.28;;;;;;;25.77;51.08;101205.09;5013668;28;20061;-69
2022/09/05 08:50:28;;;;;;;13.40;2.80;;;;;;;25.91;51.05;101212.75;5015329;28;20050;-68
2022/09/05 08:53:05;;;;;;;5.57;2.88;;;;;;;26.12;50.39;101221.19;5014951;28;20046;-68
2022/09/05 08:56:14;;;;;;;12.27;2.72;;;;;;;26.20;49.78;101239.75;4999763;28;20057;-68
2022/09/05 08:59:25;;;;;;;8.82;2.70;;;;;;;26.28;48.61;101270.38;5015110;28;20053;-69
2022/09/05 09:02:17;;;;;;;11.10;2.38;;;;;;;26.01;47.93;101252.25;5012690;28;20061;-68
2022/09/05 09:05:43;;;;;;;8.35;2.40;;;;;;;26.11;48.12;101240.16;5014709;28;20050;-69
2022/09/05 09:09:07;;;;;;;10.05;3.30;;;;;;;26.29;48.12;101246.56;4972348;28;20081;-69
2022/09/05 09:11:46;;;;;;;7.22;2.85;;;;;;;25.76;49.40;101242.19;5006069;28;20060;-68
2022/09/05 09:14:32;;;;;;;7.32;2.78;;;;;;;25.21;51.29;101250.97;5013500;28;20382;-67
2022/09/05 09:17:27;;;;;;;6.70;2.25;;;;;;;25.22;51.86;101248.97;5013977;28;20054;-68
2022/09/05 09:20:30;;;;;;;8.85;2.13;;;;;;;25.40;51.62;101250.63;5014625;28;20054;-68
2022/09/05 09:23:07;;;;;;;6.45;2.13;;;;;;;25.46;50.98;101253.84;5013409;28;20050;-68
2022/09/05 09:26:10;;;;;;;7.22;3.08;;;;;;;25.66;49.80;101257.09;5012251;28;20073;-68
2022/09/05 09:28:46;;;;;;;8.93;2.40;;;;;;;25.34;50.38;101242.94;5014855;28;20477;-69
2022/09/05 09:31:20;;;;;;;9.77;2.20;;;;;;;25.40;50.37;101239.34;5014179;28;20045;-69
2022/09/05 09:34:02;;;;;;;6.90;2.30;;;;;;;25.58;50.81;101233.72;5014925;28;20058;-68
2022/09/05 09:36:48;;;;;;;5.00;1.83;;;;;;;25.85;48.95;101236.94;5014010;28;20594;-69
2022/09/05 09:39:26;;;;;;;9.73;2.28;;;;;;;25.60;49.01;101231.28;5014666;28;20053;-69
2022/09/05 09:42:27;;;;;;;;;;;;;;;24.66;50.45;101229.03;4998818;28;20064;-68
2022/09/05 09:45:10;;;;;;;5.10;1.67;;;;;;;25.00;50.66;101222.72;4996945;28;19927;-68
2022/09/05 09:48:22;;;;;;;35.13;4.25;;;;;;;25.46;49.93;101220.00;4993313;28;20058;-68
2022/09/05 09:51:28;;;;;;;41.30;4.10;;;;;;;25.68;48.95;101210.34;5000380;28;20057;-69
2022/09/05 09:54:26;;;;;;;240.02;19.10;;;;;;;26.24;47.07;101210.28;5014721;28;20643;-69
2022/09/05 09:57:18;;;;;;;96.18;9.73;;;;;;;26.63;45.90;101202.47;5014063;28;20062;-69
2022/09/05 10:00:06;;;;;;;30.42;3.80;;;;;;;26.35;45.68;101194.09;5014584;28;20687;-69
2022/09/05 10:03:03;;;;;;;12.48;2.75;;;;;;;26.67;45.46;101191.19;5014188;28;20057;-68
2022/09/05 10:05:59;;;;;;;4.82;1.42;;;;;;;25.78;43.79;101191.78;5013916;28;20030;-69
2022/09/05 10:09:02;;;;;;;6.32;1.70;;;;;;;25.43;44.70;101184.97;4998512;28;20066;-68
2022/09/05 10:12:12;;;;;;;6.15;1.40;;;;;;;25.60;43.96;101180.50;5012853;28;20433;-68
2022/09/05 10:14:59;;;;;;;4.18;1.38;;;;;;;25.49;44.84;101165.59;5014377;28;20046;-68
2022/09/05 10:18:25;;;;;;;5.80;1.60;;;;;;;25.41;45.00;101164.81;5016517;28;20045;-68
2022/09/05 10:21:08;;;;;;;11.52;1.85;;;;;;;26.08;44.07;101166.75;4989205;28;20050;-68
2022/09/05 10:24:24;;;;;;;5.93;1.80;;;;;;;26.38;43.49;101172.69;5017891;28;20069;-68
2022/09/05 10:27:01;;;;;;;3.50;1.45;;;;;;;26.24;41.91;101169.94;5015901;28;20057;-70
2022/09/05 10:30:07;;;;;;;2.85;1.48;;;;;;;26.69;41.04;101159.66;5016299;28;20107;-70
2022/09/05 10:32:42;;;;;;;7.18;1.80;;;;;;;26.80;41.29;101168.91;4986474;28;20057;-70
2022/09/05 10:35:34;;;;;;;4.20;1.60;;;;;;;26.93;41.11;101164.38;5015955;28;20429;-69
2022/09/05 10:38:13;;;;;;;4.22;1.67;;;;;;;26.92;41.53;101165.59;5015997;28;20054;-68
2022/09/05 10:40:47;;;;;;;3.03;1.60;;;;;;;26.64;41.63;101161.66;5017103;28;20046;-69
2022/09/05 10:44:01;;;;;;;5.72;1.80;;;;;;;26.42;41.74;101148.88;5007365;28;20088;-67
2022/09/05 10:46:38;;;;;;;15.30;2.03;;;;;;;26.75;43.15;101150.34;4998575;28;20501;-71
2022/09/05 10:49:23;;;;;;;5.32;1.77;;;;;;;26.78;42.52;101148.72;5019190;28;20053;-70
2022/09/05 10:52:09;;;;;;;12.27;5.00;;;;;;;26.97;42.32;101151.03;4998586;28;20054;-73
2022/09/05 10:54:53;;;;;;;8.88;5.30;;;;;;;27.18;42.26;101151.66;5018350;28;20049;-73
2022/09/05 10:58:16;;;;;;;11.15;3.00;;;;;;;27.20;39.99;101142.78;4996747;28;20050;-71
2022/09/05 11:01:41;;;;;;;8.30;3.90;;;;;;;27.43;40.56;101140.16;4989787;28;20060;-72
2022/09/05 11:04:43;;;;;;;7.95;2.60;;;;;;;27.37;39.91;101139.81;5003304;28;20057;-71
2022/09/05 11:07:38;;;;;;;5.50;2.55;;;;;;;27.03;39.65;101143.69;5006651;28;20065;-70
2022/09/05 11:10:12;;;;;;;5.88;2.00;;;;;;;27.42;38.50;101130.06;4998409;28;20053;-72
2022/09/05 11:12:51;;;;;;;7.07;1.98;;;;;;;27.51;39.44;101131.19;4989418;28;20046;-73
2022/09/05 11:16:03;;;;;;;5.15;2.40;;;;;;;27.61;38.33;101130.31;4999009;28;20070;-74
2022/09/05 11:18:54;;;;;;;5.18;2.60;;;;;;;27.44;38.68;101138.97;4999881;28;20053;-75
2022/09/05 11:21:36;;;;;;;13.67;6.40;;;;;;;27.66;37.54;101135.50;4994780;28;20065;-73
2022/09/05 11:24:10;;;;;;;6.97;3.65;;;;;;;27.98;36.82;101126.72;5007423;28;20069;-73
2022/09/05 11:26:57;;;;;;;4.90;2.28;;;;;;;28.00;36.66;101124.22;4997088;28;20058;-73
2022/09/05 11:29:47;;;;;;;5.15;2.38;;;;;;;28.02;37.44;101118.94;5004576;28;20421;-72
2022/09/05 11:32:21;;;;;;;10.32;3.63;;;;;;;27.74;36.89;101117.22;5000696;28;20050;-71
2022/09/05 11:35:09;;;;;;;5.03;1.80;;;;;;;27.79;36.50;101115.16;5020262;28;20049;-75
2022/09/05 11:38:18;;;;;;;5.40;1.75;;;;;;;27.88;36.00;101113.41;4999626;28;21761;-72
2022/09/05 11:41:41;;;;;;;2.88;1.60;;;;;;;27.91;35.72;101108.94;5024597;28;20050;-73
2022/09/05 11:44:55;;;;;;;4.38;1.50;;;;;;;27.15;37.67;101104.41;5012458;28;20428;-74
2022/09/05 11:47:56;;;;;;;4.35;1.40;;;;;;;27.50;36.58;101108.97;4983722;28;20609;-73
2022/09/05 11:50:48;;;;;;;24.08;17.17;;;;;;;27.28;37.13;101099.06;4998551;28;20049;-73
2022/09/05 11:53:34;;;;;;;12.30;5.95;;;;;;;27.45;36.48;101098.09;5008735;28;20060;-70
2022/09/05 11:56:20;;;;;;;7.07;2.47;;;;;;;27.41;36.11;101088.84;5022963;28;20048;-72
2022/09/05 11:59:11;;;;;;;5.20;1.30;;;;;;;27.57;35.83;101087.06;5019995;28;20045;-73
2022/09/05 12:01:49;;;;;;;12.63;1.63;;;;;;;27.98;35.14;101078.56;5020965;28;20049;-73
2022/09/05 12:04:36;;;;;;;18.70;2.22;;;;;;;27.98;34.92;101078.56;5017374;28;20076;-73
2022/09/05 12:07:04;;;;;;;7.03;1.80;;;;;;;27.67;35.18;101076.84;5009377;28;20060;-73
2022/09/05 12:10:14;;;;;;;3.08;1.10;;;;;;;27.48;35.73;101071.78;4997350;28;20065;-74
2022/09/05 12:13:25;;;;;;;5.20;1.27;;;;;;;27.09;35.90;101060.84;4992396;28;20057;-72
2022/09/05 12:15:58;;;;;;;2.88;1.13;;;;;;;27.25;36.14;101066.72;4998909;28;20782;-73
2022/09/05 12:18:41;;;;;;;5.47;1.30;;;;;;;27.53;35.76;101062.88;5002172;28;20050;-74
2022/09/05 12:21:23;;;;;;;5.68;1.30;;;;;;;27.50;35.30;101061.66;5022948;28;20461;-73
2022/09/05 12:24:16;;;;;;;2.75;1.05;;;;;;;27.51;35.07;101060.44;5021717;28;20989;-73
2022/09/05 12:27:07;;;;;;;2.53;0.90;;;;;;;27.43;34.43;101050.44;5014901;28;20057;-73
2022/09/05 12:30:03;;;;;;;2.03;1.00;;;;;;;27.61;34.77;101039.72;4998421;28;20060;-73
2022/09/05 12:32:32;;;;;;;2.63;1.00;;;;;;;27.73;34.64;101032.72;4996109;28;20058;-72
2022/09/05 12:35:36;;;;;;;1.70;1.00;;;;;;;27.84;33.96;101015.59;4997180;28;20430;-73
2022/09/05 12:38:31;;;;;;;5.68;1.23;;;;;;;27.78;34.53;101015.25;4983984;28;20524;-73
2022/09/05 12:41:21;;;;;;;5.88;1.45;;;;;;;27.67;34.54;101009.72;5010248;28;20081;-73
2022/09/05 12:44:20;;;;;;;4.25;1.48;;;;;;;27.53;35.00;101001.41;4994249;28;20588;-72
2022/09/05 12:47:09;;;;;;;5.18;1.70;;;;;;;27.63;34.22;100986.31;5026422;28;20045;-72
2022/09/05 12:50:05;;;;;;;5.38;1.40;;;;;;;27.60;35.03;100986.34;5010135;28;20437;-72
2022/09/05 12:52:43;;;;;;;7.53;1.35;;;;;;;27.72;35.36;100988.66;4996705;28;20064;-73
2022/09/05 12:55:21;;;;;;;3.78;1.70;;;;;;;27.83;35.30;100980.81;4985827;28;20508;-73
2022/09/05 12:57:54;;;;;;;6.20;2.08;;;;;;;27.82;35.04;100973.56;5011936;28;20057;-73
2022/09/05 13:00:45;;;;;;;5.75;1.67;;;;;;;27.68;35.49;100979.41;4984355;28;20060;-73
2022/09/05 13:03:36;;;;;;;4.13;1.75;;;;;;;27.93;35.43;100971.38;5009530;28;20486;-75
2022/09/05 13:06:29;;;;;;;5.03;1.85;;;;;;;28.14;34.51;100959.75;4998042;28;20053;-78
2022/09/05 13:09:24;;;;;;;6.75;2.30;;;;;;;28.31;35.17;100960.75;4995384;28;20053;-71